Time;durP1;ratioP1;P1;durP2;ratioP2;P2;SDS_P1;SDS_P2;PMS_P1;PMS_P2;Temp;Humidity;BMP_temperature;BMP_pressure;BME280_temperature;BME280_humidity;BME280_pressure;Samples;Min_cycle;Max_cycle;Signal;HPM_P1;HPM_P2
2022/09/06 00:00:15;;;;;;;;;;;;;;;;;;5091830;28;19953;-80
2022/09/06 00:02:41;;;;;;;;;;;;;;;;;;5083738;28;20618;-78
2022/09/06 00:05:06;;;;;;;;;;;;;;;;;;5082461;28;19912;-79
2022/09/06 00:07:31;;;;;;;;;;;;;;;;;;5091058;28;20325;-79
2022/09/06 00:09:57;;;;;;;;;;;;;;;;;;5092334;28;19934;-79
2022/09/06 00:12:22;;;;;;;;;;;;;;;;;;5090963;28;19912;-79
2022/09/06 00:14:47;;;;;;;;;;;;;;;;;;5092575;28;19973;-79
2022/09/06 00:17:13;;;;;;;;;;;;;;;;;;5090975;28;19912;-79
2022/09/06 00:19:38;;;;;;;;;;;;;;;;;;5091215;28;19935;-79
2022/09/06 00:22:03;;;;;;;;;;;;;;;;;;5092329;28;19965;-78
2022/09/06 00:24:29;;;;;;;;;;;;;;;;;;5092647;28;19915;-79
2022/09/06 00:26:54;;;;;;;;;;;;;;;;;;5083936;28;20379;-79
2022/09/06 00:29:19;;;;;;;;;;;;;;;;;;5070865;28;19912;-78
2022/09/06 00:31:45;;;;;;;;;;;;;;;;;;5070596;28;19913;-79
2022/09/06 00:34:10;;;;;;;;;;;;;;;;;;5072056;28;20600;-79
2022/09/06 00:36:35;;;;;;;;;;;;;;;;;;5053729;28;20284;-79
2022/09/06 00:39:02;;;;;;;;;;;;;;;;;;5063736;28;19916;-81
2022/09/06 00:41:28;;;;;;;;;;;;;;;;;;5067721;28;19912;-78
2022/09/06 00:43:54;;;;;;;;;;;;;;;;;;5070735;28;19915;-79
2022/09/06 00:46:19;;;;;;;;;;;;;;;;;;5053543;28;19912;-79
2022/09/06 00:48:44;;;;;;;;;;;;;;;;;;5052730;28;19908;-79
2022/09/06 00:51:09;;;;;;;;;;;;;;;;;;5033859;28;19916;-79
2022/09/06 00:53:35;;;;;;;;;;;;;;;;;;5066962;28;19908;-79
2022/09/06 00:56:00;;;;;;;;;;;;;;;;;;5070306;28;20371;-78
2022/09/06 00:58:26;;;;;;;;;;;;;;;;;;5071953;28;19947;-79
2022/09/06 01:00:51;;;;;;;;;;;;;;;;;;5033857;28;19920;-79
2022/09/06 01:03:17;;;;;;;;;;;;;;;;;;5062248;28;20007;-79
2022/09/06 01:05:43;;;;;;;;;;;;;;;;;;5070667;28;20290;-78
2022/09/06 01:08:08;;;;;;;;;;;;;;;;;;5072188;28;19920;-78
2022/09/06 01:10:36;;;;;;;;;;;;;;;;;;5071095;28;19919;-78
2022/09/06 01:13:02;;;;;;;;;;;;;;;;;;5032622;28;19915;-78
2022/09/06 01:15:27;;;;;;;;;;;;;;;;;;5054426;28;19913;-78
2022/09/06 01:17:52;;;;;;;;;;;;;;;;;;5067664;28;19908;-78
2022/09/06 01:20:18;;;;;;;;;;;;;;;;;;5063556;28;19913;-79
2022/09/06 01:22:43;;;;;;;;;;;;;;;;;;5048442;28;19915;-79
2022/09/06 01:25:09;;;;;;;;;;;;;;;;;;5071800;28;19913;-78
2022/09/06 01:27:34;;;;;;;;;;;;;;;;;;5077183;28;19931;-79
2022/09/06 01:29:59;;;;;;;;;;;;;;;;;;5090790;28;19981;-79
2022/09/06 01:32:25;;;;;;;;;;;;;;;;;;5090564;28;19912;-80
2022/09/06 01:34:50;;;;;;;;;;;;;;;;;;5091959;28;19958;-79
2022/09/06 01:37:15;;;;;;;;;;;;;;;;;;5094293;28;19989;-79
2022/09/06 01:39:41;;;;;;;;;;;;;;;;;;5093849;28;20267;-78
2022/09/06 01:42:06;;;;;;;;;;;;;;;;;;5095299;28;19912;-78
2022/09/06 01:44:31;;;;;;;;;;;;;;;;;;5089340;28;19961;-79
2022/09/06 01:46:57;;;;;;;;;;;;;;;;;;5094514;28;19919;-79
2022/09/06 01:49:22;;;;;;;;;;;;;;;;;;5094797;28;19919;-79
2022/09/06 01:51:47;;;;;;;;;;;;;;;;;;5095660;28;19914;-79
2022/09/06 01:54:13;;;;;;;;;;;;;;;;;;5096097;28;19911;-81
2022/09/06 01:56:38;;;;;;;;;;;;;;;;;;5095767;28;20370;-79
2022/09/06 01:59:03;;;;;;;;;;;;;;;;;;5095164;28;19912;-79
2022/09/06 02:01:29;;;;;;;;;;;;;;;;;;5095906;28;19912;-78
2022/09/06 02:03:54;;;;;;;;;;;;;;;;;;5094749;28;20302;-78
2022/09/06 02:06:20;;;;;;;;;;;;;;;;;;5095812;28;19919;-80
2022/09/06 02:08:45;;;;;;;;;;;;;;;;;;5095923;28;19912;-80
2022/09/06 02:11:10;;;;;;;;;;;;;;;;;;5094382;28;20002;-78
2022/09/06 02:13:36;;;;;;;;;;;;;;;;;;5095234;28;19912;-79
2022/09/06 02:16:01;;;;;;;;;;;;;;;;;;5091452;28;19908;-79
2022/09/06 02:18:27;;;;;;;;;;;;;;;;;;5094174;28;19912;-79
2022/09/06 02:20:52;;;;;;;;;;;;;;;;;;5076677;28;20386;-79
2022/09/06 02:23:17;;;;;;;;;;;;;;;;;;5095381;28;20378;-79
2022/09/06 02:25:43;;;;;;;;;;;;;;;;;;5093773;28;20267;-80
2022/09/06 02:28:08;;;;;;;;;;;;;;;;;;5087377;28;19949;-79
2022/09/06 02:30:33;;;;;;;;;;;;;;;;;;5095191;28;19957;-80
2022/09/06 02:32:59;;;;;;;;;;;;;;;;;;5094222;28;19911;-80
2022/09/06 02:35:24;;;;;;;;;;;;;;;;;;5093883;28;19914;-80
2022/09/06 02:37:50;;;;;;;;;;;;;;;;;;5093764;28;20465;-79
2022/09/06 02:40:15;;;;;;;;;;;;;;;;;;5095118;28;20370;-80
2022/09/06 02:42:41;;;;;;;;;;;;;;;;;;5095093;28;20010;-79
2022/09/06 02:45:06;;;;;;;;;;;;;;;;;;5095060;28;19934;-80
2022/09/06 02:47:31;;;;;;;;;;;;;;;;;;5092816;28;19916;-79
2022/09/06 02:49:57;;;;;;;;;;;;;;;;;;5093810;28;20405;-79
2022/09/06 02:52:22;;;;;;;;;;;;;;;;;;5093171;28;20267;-80
2022/09/06 02:54:47;;;;;;;;;;;;;;;;;;5091578;28;20370;-80
2022/09/06 02:57:13;;;;;;;;;;;;;;;;;;5076423;28;19916;-80
2022/09/06 02:59:38;;;;;;;;;;;;;;;;;;5092926;28;19914;-80
2022/09/06 03:02:04;;;;;;;;;;;;;;;;;;5094628;28;20374;-80
2022/09/06 03:04:29;;;;;;;;;;;;;;;;;;5094399;28;19910;-80
2022/09/06 03:06:55;;;;;;;;;;;;;;;;;;5094504;28;19920;-79
2022/09/06 03:09:20;;;;;;;;;;;;;;;;;;5093896;28;19992;-79
2022/09/06 03:11:46;;;;;;;;;;;;;;;;;;5094486;28;19919;-79
2022/09/06 03:14:11;;;;;;;;;;;;;;;;;;5094348;28;19912;-78
2022/09/06 03:16:37;;;;;;;;;;;;;;;;;;5094414;28;19919;-79
2022/09/06 03:19:02;;;;;;;;;;;;;;;;;;5094522;28;19908;-80
2022/09/06 03:21:28;;;;;;;;;;;;;;;;;;5088670;28;19912;-80
2022/09/06 03:23:53;;;;;;;;;;;;;;;;;;5093093;28;19922;-80
2022/09/06 03:26:19;;;;;;;;;;;;;;;;;;5092715;28;19923;-80
2022/09/06 03:28:44;;;;;;;;;;;;;;;;;;5091623;28;20378;-79
2022/09/06 03:31:09;;;;;;;;;;;;;;;;;;5093598;28;19912;-79
2022/09/06 03:33:35;;;;;;;;;;;;;;;;;;5092819;28;19908;-80
2022/09/06 03:36:00;;;;;;;;;;;;;;;;;;5092492;28;19969;-80
2022/09/06 03:38:25;;;;;;;;;;;;;;;;;;5093998;28;19907;-79
2022/09/06 03:40:51;;;;;;;;;;;;;;;;;;5094019;28;19912;-80
2022/09/06 03:43:17;;;;;;;;;;;;;;;;;;5094013;28;20211;-79
2022/09/06 03:45:42;;;;;;;;;;;;;;;;;;5092809;28;19970;-80
2022/09/06 03:48:08;;;;;;;;;;;;;;;;;;5088508;28;19919;-81
2022/09/06 03:50:33;;;;;;;;;;;;;;;;;;5083908;28;20004;-81
2022/09/06 03:52:58;;;;;;;;;;;;;;;;;;5084954;28;19908;-80
2022/09/06 03:55:24;;;;;;;;;;;;;;;;;;5092176;28;19912;-80
2022/09/06 03:57:49;;;;;;;;;;;;;;;;;;5093540;28;19912;-80
2022/09/06 04:00:14;;;;;;;;;;;;;;;;;;5093593;28;19911;-80
2022/09/06 04:02:40;;;;;;;;;;;;;;;;;;5091354;28;19918;-80
2022/09/06 04:05:05;;;;;;;;;;;;;;;;;;5091242;28;19918;-80
2022/09/06 04:07:30;;;;;;;;;;;;;;;;;;5092779;28;20352;-80
2022/09/06 04:09:56;;;;;;;;;;;;;;;;;;5093198;28;19919;-80
2022/09/06 04:12:21;;;;;;;;;;;;;;;;;;5092402;28;19907;-79
2022/09/06 04:14:46;;;;;;;;;;;;;;;;;;5088872;28;20014;-79
2022/09/06 04:17:13;;;;;;;;;;;;;;;;;;5092147;28;19907;-79
2022/09/06 04:19:38;;;;;;;;;;;;;;;;;;5087467;28;19958;-79
2022/09/06 04:22:04;;;;;;;;;;;;;;;;;;5091378;28;20374;-83
2022/09/06 04:24:29;;;;;;;;;;;;;;;;;;5093415;28;20002;-80
2022/09/06 04:26:54;;;;;;;;;;;;;;;;;;5091879;28;19928;-80
2022/09/06 04:29:20;;;;;;;;;;;;;;;;;;5091581;28;20362;-80
2022/09/06 04:31:45;;;;;;;;;;;;;;;;;;5086037;28;19909;-83
2022/09/06 04:34:11;;;;;;;;;;;;;;;;;;5087667;28;20447;-82
2022/09/06 04:36:36;;;;;;;;;;;;;;;;;;5086017;28;19934;-83
2022/09/06 04:39:02;;;;;;;;;;;;;;;;;;5093118;28;19923;-83
2022/09/06 04:41:27;;;;;;;;;;;;;;;;;;5093932;28;19953;-83
2022/09/06 04:43:52;;;;;;;;;;;;;;;;;;5093078;28;19912;-82
2022/09/06 04:46:18;;;;;;;;;;;;;;;;;;5093416;28;19951;-82
2022/09/06 04:48:43;;;;;;;;;;;;;;;;;;5090305;28;19942;-82
2022/09/06 04:51:08;;;;;;;;;;;;;;;;;;5094779;28;19959;-82
2022/09/06 04:53:34;;;;;;;;;;;;;;;;;;5091724;28;19969;-82
2022/09/06 04:55:59;;;;;;;;;;;;;;;;;;5093584;28;19915;-82
2022/09/06 04:58:24;;;;;;;;;;;;;;;;;;5091406;28;19913;-82
2022/09/06 05:00:50;;;;;;;;;;;;;;;;;;5090511;28;20003;-85
2022/09/06 05:03:15;;;;;;;;;;;;;;;;;;5091572;28;19916;-83
2022/09/06 05:05:41;;;;;;;;;;;;;;;;;;5093544;28;20389;-81
2022/09/06 05:08:06;;;;;;;;;;;;;;;;;;5093864;28;19920;-82
2022/09/06 05:10:31;;;;;;;;;;;;;;;;;;5095866;28;20002;-82
2022/09/06 05:12:57;;;;;;;;;;;;;;;;;;5090790;28;19916;-83
2022/09/06 05:15:22;;;;;;;;;;;;;;;;;;5097798;28;19915;-82
2022/09/06 05:17:48;;;;;;;;;;;;;;;;;;5092714;28;19981;-80
2022/09/06 05:20:13;;;;;;;;;;;;;;;;;;5091838;28;19989;-82
2022/09/06 05:22:39;;;;;;;;;;;;;;;;;;5097776;28;19912;-79
2022/09/06 05:25:04;;;;;;;;;;;;;;;;;;5096850;28;19914;-81
2022/09/06 05:27:30;;;;;;;;;;;;;;;;;;5092831;28;19967;-80
2022/09/06 05:29:55;;;;;;;;;;;;;;;;;;5096178;28;19993;-82
2022/09/06 05:32:21;;;;;;;;;;;;;;;;;;5091633;28;19912;-80
2022/09/06 05:34:46;;;;;;;;;;;;;;;;;;5094394;28;19933;-83
2022/09/06 05:37:11;;;;;;;;;;;;;;;;;;5079212;28;19931;-80
2022/09/06 05:39:37;;;;;;;;;;;;;;;;;;5096798;28;19946;-81
2022/09/06 05:42:05;;;;;;;;;;;;;;;;;;5095963;28;19958;-81
2022/09/06 05:44:31;;;;;;;;;;;;;;;;;;5089501;28;19912;-82
2022/09/06 05:46:56;;;;;;;;;;;;;;;;;;5096080;28;19927;-82
2022/09/06 05:49:21;;;;;;;;;;;;;;;;;;5086176;28;19912;-81
2022/09/06 05:51:47;;;;;;;;;;;;;;;;;;5093602;28;19912;-81
2022/09/06 05:54:12;;;;;;;;;;;;;;;;;;5096614;28;19908;-80
2022/09/06 05:56:38;;;;;;;;;;;;;;;;;;5095891;28;19911;-81
2022/09/06 05:59:04;;;;;;;;;;;;;;;;;;5097763;28;20000;-80
2022/09/06 06:01:30;;;;;;;;;;;;;;;;;;5093965;28;19912;-82
2022/09/06 06:03:56;;;;;;;;;;;;;;;;;;5095614;28;19915;-83
2022/09/06 06:06:21;;;;;;;;;;;;;;;;;;5097920;28;20375;-81
2022/09/06 06:08:46;;;;;;;;;;;;;;;;;;5095914;28;19938;-81
2022/09/06 06:11:12;;;;;;;;;;;;;;;;;;5096557;28;19916;-81
2022/09/06 06:13:38;;;;;;;;;;;;;;;;;;5078643;28;19950;-81
2022/09/06 06:16:03;;;;;;;;;;;;;;;;;;5097359;28;19912;-82
2022/09/06 06:18:29;;;;;;;;;;;;;;;;;;5095412;28;19929;-81
2022/09/06 06:20:54;;;;;;;;;;;;;;;;;;5091617;28;19965;-83
2022/09/06 06:23:20;;;;;;;;;;;;;;;;;;5093899;28;19912;-82
2022/09/06 06:25:45;;;;;;;;;;;;;;;;;;5097336;28;19919;-84
2022/09/06 06:28:10;;;;;;;;;;;;;;;;;;5080936;28;20010;-81
2022/09/06 06:30:36;;;;;;;;;;;;;;;;;;5094021;28;19916;-81
2022/09/06 06:33:01;;;;;;;;;;;;;;;;;;5095741;28;20385;-82
2022/09/06 06:35:52;;;;;;;;;;;;;;;;;;5096972;28;19923;-81
2022/09/06 06:38:17;;;;;;;;;;;;;;;;;;5095188;28;19912;-82
2022/09/06 06:40:42;;;;;;;;;;;;;;;;;;5094007;28;19932;-81
2022/09/06 06:43:09;;;;;;;;;;;;;;;;;;5078808;28;19915;-82
2022/09/06 06:45:37;;;;;;;;;;;;;;;;;;5095758;28;19908;-82
2022/09/06 06:48:03;;;;;;;;;;;;;;;;;;5090590;28;19916;-81
2022/09/06 06:50:28;;;;;;;;;;;;;;;;;;5094753;28;19908;-82
2022/09/06 06:52:54;;;;;;;;;;;;;;;;;;5095174;28;19961;-81
2022/09/06 06:55:19;;;;;;;;;;;;;;;;;;5094297;28;19908;-81
2022/09/06 06:57:44;;;;;;;;;;;;;;;;;;5096344;28;19911;-83
2022/09/06 07:00:10;;;;;;;;;;;;;;;;;;5096099;28;19912;-81
2022/09/06 07:02:35;;;;;;;;;;;;;;;;;;5097769;28;20018;-82
2022/09/06 07:05:00;;;;;;;;;;;;;;;;;;5095677;28;19907;-81
2022/09/06 07:07:26;;;;;;;;;;;;;;;;;;5097017;28;19916;-82
2022/09/06 07:09:51;;;;;;;;;;;;;;;;;;5077446;28;19914;-83
2022/09/06 07:12:17;;;;;;;;;;;;;;;;;;5094863;28;19934;-83
2022/09/06 07:14:42;;;;;;;;;;;;;;;;;;5095617;28;19915;-82
2022/09/06 07:17:08;;;;;;;;;;;;;;;;;;5094681;28;19919;-83
2022/09/06 07:19:33;;;;;;;;;;;;;;;;;;5096441;28;19960;-83
2022/09/06 07:21:58;;;;;;;;;;;;;;;;;;5078756;28;19912;-82
2022/09/06 07:24:24;;;;;;;;;;;;;;;;;;5078285;28;19908;-83
2022/09/06 07:26:49;;;;;;;;;;;;;;;;;;5090647;28;19926;-84
2022/09/06 07:29:14;;;;;;;;;;;;;;;;;;5096625;28;19908;-83
2022/09/06 07:31:40;;;;;;;;;;;;;;;;;;5093675;28;19915;-82
2022/09/06 07:34:05;;;;;;;;;;;;;;;;;;5091294;28;19908;-82
2022/09/06 07:36:31;;;;;;;;;;;;;;;;;;5094499;28;20335;-82
2022/09/06 07:38:56;;;;;;;;;;;;;;;;;;5094483;28;20002;-84
2022/09/06 07:41:21;;;;;;;;;;;;;;;;;;5093597;28;19919;-82
2022/09/06 07:43:47;;;;;;;;;;;;;;;;;;5094954;28;20002;-82
2022/09/06 07:46:12;;;;;;;;;;;;;;;;;;5093811;28;20086;-83
2022/09/06 07:48:38;;;;;;;;;;;;;;;;;;5093539;28;19912;-82
2022/09/06 07:51:04;;;;;;;;;;;;;;;;;;5094405;28;19958;-81
2022/09/06 07:53:29;;;;;;;;;;;;;;;;;;5089764;28;19955;-84
2022/09/06 07:55:55;;;;;;;;;;;;;;;;;;5090870;28;19912;-82
2022/09/06 07:58:21;;;;;;;;;;;;;;;;;;5089177;28;19912;-82
2022/09/06 08:00:47;;;;;;;;;;;;;;;;;;5093610;28;19911;-82
2022/09/06 08:03:12;;;;;;;;;;;;;;;;;;5078281;28;19914;-84
2022/09/06 08:05:38;;;;;;;;;;;;;;;;;;5091446;28;19947;-84
2022/09/06 08:08:03;;;;;;;;;;;;;;;;;;5093960;28;19911;-82
2022/09/06 08:10:30;;;;;;;;;;;;;;;;;;5087531;28;19938;-83
2022/09/06 08:12:56;;;;;;;;;;;;;;;;;;5094078;28;19908;-81
2022/09/06 08:15:21;;;;;;;;;;;;;;;;;;5088918;28;19913;-82
2022/09/06 08:17:47;;;;;;;;;;;;;;;;;;5092597;28;20294;-82
2022/09/06 08:20:12;;;;;;;;;;;;;;;;;;5093306;28;19915;-82
2022/09/06 08:22:38;;;;;;;;;;;;;;;;;;5092504;28;19962;-81
2022/09/06 08:25:03;;;;;;;;;;;;;;;;;;5101240;28;19912;-82
2022/09/06 08:27:28;;;;;;;;;;;;;;;;;;5080597;28;19931;-81
2022/09/06 08:29:54;;;;;;;;;;;;;;;;;;5039614;28;20030;-82
2022/09/06 08:32:19;;;;;;;;;;;;;;;;;;5074567;28;20124;-82
2022/09/06 08:34:45;;;;;;;;;;;;;;;;;;5049537;28;19935;-82
2022/09/06 08:37:10;;;;;;;;;;;;;;;;;;5056130;28;20337;-81
2022/09/06 08:39:35;;;;;;;;;;;;;;;;;;5076740;28;20388;-82
2022/09/06 08:42:02;;;;;;;;;;;;;;;;;;5051979;28;19912;-83
2022/09/06 08:44:27;;;;;;;;;;;;;;;;;;5042862;28;20003;-82
2022/09/06 08:46:53;;;;;;;;;;;;;;;;;;5042904;28;22187;-82
2022/09/06 08:49:18;;;;;;;;;;;;;;;;;;5040465;28;20323;-83
2022/09/06 08:51:44;;;;;;;;;;;;;;;;;;5038963;28;19915;-81
2022/09/06 08:54:09;;;;;;;;;;;;;;;;;;5060279;28;20286;-82
2022/09/06 08:56:35;;;;;;;;;;;;;;;;;;5057816;28;19908;-81
2022/09/06 08:59:00;;;;;;;;;;;;;;;;;;5040519;28;19951;-83
2022/09/06 09:01:25;;;;;;;;;;;;;;;;;;5059263;28;19954;-83
2022/09/06 09:03:51;;;;;;;;;;;;;;;;;;5041756;28;19958;-85
2022/09/06 09:06:16;;;;;;;;;;;;;;;;;;5041765;28;19908;-83
2022/09/06 09:08:43;;;;;;;;;;;;;;;;;;5039552;28;19963;-80
2022/09/06 09:11:09;;;;;;;;;;;;;;;;;;5041920;28;19908;-83
2022/09/06 09:13:34;;;;;;;;;;;;;;;;;;5076040;28;20378;-81
2022/09/06 09:15:59;;;;;;;;;;;;;;;;;;5076394;28;19920;-82
2022/09/06 09:18:25;;;;;;;;;;;;;;;;;;5071460;28;19919;-82
2022/09/06 09:20:50;;;;;;;;;;;;;;;;;;5052698;28;20349;-82
2022/09/06 09:23:16;;;;;;;;;;;;;;;;;;5074883;28;19912;-82
2022/09/06 09:25:42;;;;;;;;;;;;;;;;;;5077360;28;19908;-82
2022/09/06 09:28:07;;;;;;;;;;;;;;;;;;5093495;28;19923;-84
2022/09/06 09:30:33;;;;;;;;;;;;;;;;;;5077598;28;19908;-82
2022/09/06 09:32:58;;;;;;;;;;;;;;;;;;5093071;28;19954;-82
2022/09/06 09:35:24;;;;;;;;;;;;;;;;;;5096192;28;19908;-81
2022/09/06 09:37:49;;;;;;;;;;;;;;;;;;5097644;28;19923;-81
2022/09/06 09:40:14;;;;;;;;;;;;;;;;;;5089150;28;20278;-80
2022/09/06 09:42:40;;;;;;;;;;;;;;;;;;5096184;28;19916;-82
2022/09/06 09:45:05;;;;;;;;;;;;;;;;;;5096765;28;20048;-82
2022/09/06 09:47:30;;;;;;;;;;;;;;;;;;5098531;28;19916;-83
2022/09/06 09:49:56;;;;;;;;;;;;;;;;;;5095908;28;19953;-83
2022/09/06 09:52:21;;;;;;;;;;;;;;;;;;5089836;28;19911;-82
2022/09/06 09:54:47;;;;;;;;;;;;;;;;;;5097478;28;19912;-84
2022/09/06 09:57:12;;;;;;;;;;;;;;;;;;5097495;28;19919;-84
2022/09/06 09:59:37;;;;;;;;;;;;;;;;;;5095799;28;19908;-82
2022/09/06 10:02:03;;;;;;;;;;;;;;;;;;5097214;28;19950;-83
2022/09/06 10:04:28;;;;;;;;;;;;;;;;;;5078513;28;20291;-82
2022/09/06 10:06:54;;;;;;;;;;;;;;;;;;5095981;28;19916;-81
2022/09/06 10:09:19;;;;;;;;;;;;;;;;;;5094930;28;19973;-81
2022/09/06 10:11:44;;;;;;;;;;;;;;;;;;5083515;28;19912;-83
2022/09/06 10:14:10;;;;;;;;;;;;;;;;;;5082962;28;19912;-83
2022/09/06 10:16:35;;;;;;;;;;;;;;;;;;5084837;28;19919;-81
2022/09/06 10:19:01;;;;;;;;;;;;;;;;;;5084751;28;20367;-85
2022/09/06 10:21:28;;;;;;;;;;;;;;;;;;5090023;28;19998;-83
2022/09/06 10:23:53;;;;;;;;;;;;;;;;;;5077122;28;19962;-82
2022/09/06 10:26:18;;;;;;;;;;;;;;;;;;5095342;28;19919;-81
2022/09/06 10:28:44;;;;;;;;;;;;;;;;;;5094953;28;19922;-83
2022/09/06 10:31:10;;;;;;;;;;;;;;;;;;5094861;28;20294;-82
2022/09/06 10:33:35;;;;;;;;;;;;;;;;;;5095359;28;19915;-81
2022/09/06 10:36:00;;;;;;;;;;;;;;;;;;5095592;28;19912;-83
2022/09/06 10:38:26;;;;;;;;;;;;;;;;;;5094952;28;19911;-82
2022/09/06 10:40:51;;;;;;;;;;;;;;;;;;5095347;28;19912;-83
2022/09/06 10:43:17;;;;;;;;;;;;;;;;;;5079225;28;20346;-82
2022/09/06 10:45:42;;;;;;;;;;;;;;;;;;5095568;28;19947;-81
2022/09/06 10:48:08;;;;;;;;;;;;;;;;;;5082829;28;19918;-84
2022/09/06 10:50:33;;;;;;;;;;;;;;;;;;5096185;28;20298;-82
2022/09/06 10:52:59;;;;;;;;;;;;;;;;;;5095759;28;19958;-83
2022/09/06 10:55:24;;;;;;;;;;;;;;;;;;5078058;28;19915;-82
2022/09/06 10:57:49;;;;;;;;;;;;;;;;;;5095224;28;19912;-82
2022/09/06 11:00:15;;;;;;;;;;;;;;;;;;5094929;28;20400;-84
2022/09/06 11:02:41;;;;;;;;;;;;;;;;;;5096942;28;19912;-83
2022/09/06 11:05:06;;;;;;;;;;;;;;;;;;5094924;28;19912;-83
2022/09/06 11:07:33;;;;;;;;;;;;;;;;;;5078240;28;19915;-84
2022/09/06 11:09:58;;;;;;;;;;;;;;;;;;5096792;28;19912;-83
2022/09/06 11:12:23;;;;;;;;;;;;;;;;;;5084449;28;19938;-83
2022/09/06 11:14:49;;;;;;;;;;;;;;;;;;5080289;28;19912;-85
2022/09/06 11:17:14;;;;;;;;;;;;;;;;;;5082935;28;19908;-86
2022/09/06 11:19:40;;;;;;;;;;;;;;;;;;5080485;28;19916;-83
2022/09/06 11:22:05;;;;;;;;;;;;;;;;;;5090088;28;19933;-86
2022/09/06 11:24:30;;;;;;;;;;;;;;;;;;5084918;28;19969;-85
2022/09/06 11:26:56;;;;;;;;;;;;;;;;;;5099857;28;19962;-84
2022/09/06 11:29:21;;;;;;;;;;;;;;;;;;5055631;28;19913;-87
2022/09/06 11:31:46;;;;;;;;;;;;;;;;;;5040839;28;19909;-84
2022/09/06 11:34:12;;;;;;;;;;;;;;;;;;5078881;28;19912;-83
2022/09/06 11:36:37;;;;;;;;;;;;;;;;;;5072943;28;19915;-81
2022/09/06 11:39:03;;;;;;;;;;;;;;;;;;5060465;28;20287;-83
2022/09/06 11:41:28;;;;;;;;;;;;;;;;;;5079853;28;19915;-84
2022/09/06 11:43:54;;;;;;;;;;;;;;;;;;5048591;28;19970;-83
2022/09/06 11:46:19;;;;;;;;;;;;;;;;;;5078729;28;19923;-86
2022/09/06 11:48:44;;;;;;;;;;;;;;;;;;5063146;28;19916;-84
2022/09/06 11:51:11;;;;;;;;;;;;;;;;;;5061282;28;19955;-87
2022/09/06 11:53:36;;;;;;;;;;;;;;;;;;5051856;28;19975;-83
2022/09/06 11:56:02;;;;;;;;;;;;;;;;;;5047241;28;19944;-86
2022/09/06 11:58:27;;;;;;;;;;;;;;;;;;5037999;28;19970;-83
2022/09/06 12:00:52;;;;;;;;;;;;;;;;;;5068190;28;19915;-84
2022/09/06 12:03:18;;;;;;;;;;;;;;;;;;5042690;28;19999;-84
2022/09/06 12:05:43;;;;;;;;;;;;;;;;;;5073975;28;19915;-86
2022/09/06 12:08:08;;;;;;;;;;;;;;;;;;5059262;28;19924;-83
2022/09/06 12:10:34;;;;;;;;;;;;;;;;;;5088856;28;19995;-85
2022/09/06 12:12:59;;;;;;;;;;;;;;;;;;5061325;28;20447;-81
2022/09/06 12:15:24;;;;;;;;;;;;;;;;;;5076285;28;20334;-85
2022/09/06 12:17:50;;;;;;;;;;;;;;;;;;5063088;28;20379;-83
2022/09/06 12:20:15;;;;;;;;;;;;;;;;;;5059080;28;19915;-85
2022/09/06 12:22:41;;;;;;;;;;;;;;;;;;5061408;28;19934;-86
2022/09/06 12:25:06;;;;;;;;;;;;;;;;;;5067407;28;19915;-84
2022/09/06 12:27:32;;;;;;;;;;;;;;;;;;5077318;28;20015;-83
2022/09/06 12:29:58;;;;;;;;;;;;;;;;;;5096450;28;20396;-85
2022/09/06 12:32:24;;;;;;;;;;;;;;;;;;5098962;28;19938;-84
2022/09/06 12:34:49;;;;;;;;;;;;;;;;;;5099623;28;19947;-82
2022/09/06 12:37:15;;;;;;;;;;;;;;;;;;5095854;28;19912;-85
2022/09/06 12:39:40;;;;;;;;;;;;;;;;;;5081481;28;19993;-86
2022/09/06 12:42:06;;;;;;;;;;;;;;;;;;5088867;28;19924;-83
2022/09/06 12:44:31;;;;;;;;;;;;;;;;;;5077014;28;19931;-86
2022/09/06 12:46:57;;;;;;;;;;;;;;;;;;5092284;28;19916;-87
2022/09/06 12:49:22;;;;;;;;;;;;;;;;;;5081898;28;19908;-85
2022/09/06 12:51:48;;;;;;;;;;;;;;;;;;5079244;28;20428;-84
2022/09/06 12:54:13;;;;;;;;;;;;;;;;;;5097224;28;19908;-87
2022/09/06 12:56:39;;;;;;;;;;;;;;;;;;5097283;28;19920;-85
2022/09/06 12:59:04;;;;;;;;;;;;;;;;;;5099583;28;19916;-85
2022/09/06 13:01:30;;;;;;;;;;;;;;;;;;5080936;28;19915;-83
2022/09/06 13:03:55;;;;;;;;;;;;;;;;;;5080884;28;20433;-85
2022/09/06 13:06:20;;;;;;;;;;;;;;;;;;5079140;28;20349;-83
2022/09/06 13:08:46;;;;;;;;;;;;;;;;;;5097517;28;20008;-85
2022/09/06 13:11:12;;;;;;;;;;;;;;;;;;5100580;28;20290;-84
2022/09/06 13:13:37;;;;;;;;;;;;;;;;;;5081658;28;19908;-86
2022/09/06 13:16:02;;;;;;;;;;;;;;;;;;5082217;28;19919;-86
2022/09/06 13:18:28;;;;;;;;;;;;;;;;;;5099576;28;19907;-84
2022/09/06 13:20:53;;;;;;;;;;;;;;;;;;5094323;28;19916;-87
2022/09/06 13:23:19;;;;;;;;;;;;;;;;;;5099788;28;20007;-86
2022/09/06 13:25:44;;;;;;;;;;;;;;;;;;5076776;28;19912;-84
2022/09/06 13:28:09;;;;;;;;;;;;;;;;;;5080964;28;19930;-81
2022/09/06 13:30:35;;;;;;;;;;;;;;;;;;5092827;28;19924;-84
2022/09/06 13:33:00;;;;;;;;;;;;;;;;;;5089067;28;20003;-85
2022/09/06 13:35:27;;;;;;;;;;;;;;;;;;5093709;28;19915;-86
2022/09/06 13:37:52;;;;;;;;;;;;;;;;;;5104026;28;20412;-87
2022/09/06 13:40:18;;;;;;;;;;;;;;;;;;5089629;28;19908;-81
2022/09/06 13:42:43;;;;;;;;;;;;;;;;;;5102765;28;19912;-85
2022/09/06 13:45:09;;;;;;;;;;;;;;;;;;5083189;28;19908;-85
2022/09/06 13:47:34;;;;;;;;;;;;;;;;;;5085242;28;19916;-85
2022/09/06 13:50:00;;;;;;;;;;;;;;;;;;5077982;28;19947;-84
2022/09/06 13:52:25;;;;;;;;;;;;;;;;;;5099997;28;19912;-86
2022/09/06 13:54:51;;;;;;;;;;;;;;;;;;5083294;28;19907;-89
2022/09/06 13:57:16;;;;;;;;;;;;;;;;;;5081440;28;19912;-87
2022/09/06 13:59:41;;;;;;;;;;;;;;;;;;5098950;28;20369;-83
2022/09/06 14:02:08;;;;;;;;;;;;;;;;;;5098913;28;19912;-82
2022/09/06 14:04:35;;;;;;;;;;;;;;;;;;5099937;28;19908;-82
2022/09/06 14:07:00;;;;;;;;;;;;;;;;;;5099021;28;20345;-85
2022/09/06 14:09:25;;;;;;;;;;;;;;;;;;5098316;28;19995;-83
2022/09/06 14:12:06;;;;;;;;;;;;;;;;;;5097713;28;19974;-86
2022/09/06 14:14:31;;;;;;;;;;;;;;;;;;5093049;28;19962;-82
2022/09/06 14:16:56;;;;;;;;;;;;;;;;;;5079830;28;19908;-85
2022/09/06 14:19:22;;;;;;;;;;;;;;;;;;5092323;28;19934;-82
2022/09/06 14:21:47;;;;;;;;;;;;;;;;;;5095723;28;19908;-85
2022/09/06 14:24:13;;;;;;;;;;;;;;;;;;5098217;28;19912;-86
2022/09/06 14:26:38;;;;;;;;;;;;;;;;;;5093337;28;19928;-83
2022/09/06 14:29:04;;;;;;;;;;;;;;;;;;5041350;28;20023;-84
2022/09/06 14:31:31;;;;;;;;;;;;;;;;;;5080073;28;19908;-84
2022/09/06 14:33:56;;;;;;;;;;;;;;;;;;5062220;28;19912;-83
2022/09/06 14:36:22;;;;;;;;;;;;;;;;;;5077778;28;19912;-83
2022/09/06 14:38:47;;;;;;;;;;;;;;;;;;5047571;28;19962;-82
2022/09/06 14:41:13;;;;;;;;;;;;;;;;;;5044659;28;19909;-86
2022/09/06 14:43:38;;;;;;;;;;;;;;;;;;5071067;28;20545;-86
2022/09/06 14:46:04;;;;;;;;;;;;;;;;;;5038962;28;19944;-82
2022/09/06 14:48:30;;;;;;;;;;;;;;;;;;5077133;28;20379;-87
2022/09/06 14:50:55;;;;;;;;;;;;;;;;;;5042043;28;19908;-81
2022/09/06 14:53:20;;;;;;;;;;;;;;;;;;5036567;28;20387;-83
2022/09/06 14:55:46;;;;;;;;;;;;;;;;;;5077313;28;19908;-83
2022/09/06 14:58:13;;;;;;;;;;;;;;;;;;5072577;28;19913;-84
2022/09/06 15:00:39;;;;;;;;;;;;;;;;;;5049358;28;19915;-84
2022/09/06 15:03:04;;;;;;;;;;;;;;;;;;5058117;28;20378;-84
2022/09/06 15:05:29;;;;;;;;;;;;;;;;;;5059178;28;19961;-82
2022/09/06 15:07:55;;;;;;;;;;;;;;;;;;5057782;28;19923;-84
2022/09/06 15:10:20;;;;;;;;;;;;;;;;;;5058437;28;19913;-84
2022/09/06 15:12:46;;;;;;;;;;;;;;;;;;5038828;28;19913;-82
2022/09/06 15:15:11;;;;;;;;;;;;;;;;;;5055044;28;20429;-82
2022/09/06 15:17:38;;;;;;;;;;;;;;;;;;5056978;28;19917;-84
2022/09/06 15:20:03;;;;;;;;;;;;;;;;;;5057140;28;19908;-81
2022/09/06 15:22:29;;;;;;;;;;;;;;;;;;5040814;28;19951;-82
2022/09/06 15:24:54;;;;;;;;;;;;;;;;;;5070288;28;19908;-82
2022/09/06 15:27:20;;;;;;;;;;;;;;;;;;5038726;28;19932;-86
2022/09/06 15:29:45;;;;;;;;;;;;;;;;;;5071977;28;19934;-85
2022/09/06 15:32:11;;;;;;;;;;;;;;;;;;5059808;28;19913;-83
2022/09/06 15:34:38;;;;;;;;;;;;;;;;;;5077801;28;19912;-83
2022/09/06 15:37:03;;;;;;;;;;;;;;;;;;5075166;28;20394;-82
2022/09/06 15:39:28;;;;;;;;;;;;;;;;;;5057594;28;19908;-84
2022/09/06 15:41:55;;;;;;;;;;;;;;;;;;5074809;28;19912;-82
2022/09/06 15:44:21;;;;;;;;;;;;;;;;;;5057310;28;19948;-81
2022/09/06 15:46:46;;;;;;;;;;;;;;;;;;5074146;28;20776;-81
2022/09/06 15:49:12;;;;;;;;;;;;;;;;;;5036403;28;19912;-86
2022/09/06 15:51:37;;;;;;;;;;;;;;;;;;5054063;28;19912;-84
2022/09/06 15:54:03;;;;;;;;;;;;;;;;;;5054102;28;19908;-82
2022/09/06 15:56:28;;;;;;;;;;;;;;;;;;5057484;28;19912;-81
2022/09/06 15:58:53;;;;;;;;;;;;;;;;;;5072162;28;19907;-82
2022/09/06 16:01:19;;;;;;;;;;;;;;;;;;5070350;28;19920;-80
2022/09/06 16:03:44;;;;;;;;;;;;;;;;;;5073897;28;19908;-77
2022/09/06 16:06:10;;;;;;;;;;;;;;;;;;5072989;28;19987;-79
2022/09/06 16:08:35;;;;;;;;;;;;;;;;;;5073241;28;19939;-80
2022/09/06 16:11:02;;;;;;;;;;;;;;;;;;5073283;28;19916;-79
2022/09/06 16:13:27;;;;;;;;;;;;;;;;;;5072954;28;19916;-80
2022/09/06 16:15:53;;;;;;;;;;;;;;;;;;5072472;28;20329;-79
2022/09/06 16:18:18;;;;;;;;;;;;;;;;;;5073254;28;19912;-79
2022/09/06 16:20:44;;;;;;;;;;;;;;;;;;5054770;28;19916;-79
2022/09/06 16:23:09;;;;;;;;;;;;;;;;;;5039329;28;19909;-77
2022/09/06 16:25:34;;;;;;;;;;;;;;;;;;5073285;28;20340;-80
2022/09/06 16:28:01;;;;;;;;;;;;;;;;;;5065743;28;19924;-78
2022/09/06 16:30:27;;;;;;;;;;;;;;;;;;5057598;28;19916;-79
2022/09/06 16:32:53;;;;;;;;;;;;;;;;;;5054801;28;19909;-80